sensor_id;sensor_type;location;lat;lon;timestamp;P1;durP1;ratioP1;P2;durP2;ratioP2
37609;SDS011;23457;51.966;8.230;2023-06-22T00:01:18;9.80;;;5.10;;
37609;SDS011;23457;51.966;8.230;2023-06-22T00:03:46;6.95;;;5.13;;
37609;SDS011;23457;51.966;8.230;2023-06-22T00:06:13;7.30;;;5.70;;
37609;SDS011;23457;51.966;8.230;2023-06-22T00:08:39;5.90;;;4.72;;
37609;SDS011;23457;51.966;8.230;2023-06-22T00:11:06;6.03;;;5.30;;
37609;SDS011;23457;51.966;8.230;2023-06-22T00:13:33;8.45;;;5.28;;
37609;SDS011;23457;51.966;8.230;2023-06-22T00:16:00;6.47;;;5.30;;
37609;SDS011;23457;51.966;8.230;2023-06-22T00:18:26;6.22;;;5.63;;
37609;SDS011;23457;51.966;8.230;2023-06-22T00:20:55;8.85;;;5.57;;
37609;SDS011;23457;51.966;8.230;2023-06-22T00:23:25;7.20;;;5.57;;
37609;SDS011;23457;51.966;8.230;2023-06-22T00:25:52;6.35;;;5.55;;
37609;SDS011;23457;51.966;8.230;2023-06-22T00:28:19;8.70;;;5.45;;
37609;SDS011;23457;51.966;8.230;2023-06-22T00:30:45;11.23;;;5.32;;
37609;SDS011;23457;51.966;8.230;2023-06-22T00:33:13;10.73;;;5.72;;
37609;SDS011;23457;51.966;8.230;2023-06-22T00:35:41;9.60;;;5.38;;
37609;SDS011;23457;51.966;8.230;2023-06-22T00:38:08;8.20;;;5.05;;
37609;SDS011;23457;51.966;8.230;2023-06-22T00:40:35;7.63;;;5.40;;
37609;SDS011;23457;51.966;8.230;2023-06-22T00:43:02;5.82;;;4.82;;
37609;SDS011;23457;51.966;8.230;2023-06-22T00:45:29;7.35;;;5.03;;
37609;SDS011;23457;51.966;8.230;2023-06-22T00:47:57;5.90;;;5.25;;
37609;SDS011;23457;51.966;8.230;2023-06-22T00:50:25;8.18;;;5.47;;
37609;SDS011;23457;51.966;8.230;2023-06-22T00:52:55;6.53;;;5.32;;
37609;SDS011;23457;51.966;8.230;2023-06-22T00:55:24;7.65;;;5.93;;
37609;SDS011;23457;51.966;8.230;2023-06-22T00:57:52;7.55;;;6.10;;
37609;SDS011;23457;51.966;8.230;2023-06-22T01:00:23;9.48;;;6.22;;
37609;SDS011;23457;51.966;8.230;2023-06-22T01:02:52;8.18;;;6.32;;
37609;SDS011;23457;51.966;8.230;2023-06-22T01:05:20;8.10;;;6.28;;
37609;SDS011;23457;51.966;8.230;2023-06-22T01:10:24;10.73;;;7.45;;
37609;SDS011;23457;51.966;8.230;2023-06-22T01:12:55;12.68;;;7.40;;
37609;SDS011;23457;51.966;8.230;2023-06-22T01:15:28;9.23;;;6.90;;
37609;SDS011;23457;51.966;8.230;2023-06-22T01:18:29;9.13;;;7.97;;
37609;SDS011;23457;51.966;8.230;2023-06-22T01:20:59;8.73;;;7.45;;
37609;SDS011;23457;51.966;8.230;2023-06-22T01:29:04;13.23;;;7.93;;
37609;SDS011;23457;51.966;8.230;2023-06-22T01:31:32;13.35;;;8.00;;
37609;SDS011;23457;51.966;8.230;2023-06-22T01:34:02;12.77;;;8.48;;
37609;SDS011;23457;51.966;8.230;2023-06-22T01:38:58;9.27;;;7.47;;
37609;SDS011;23457;51.966;8.230;2023-06-22T01:41:25;11.32;;;8.60;;
37609;SDS011;23457;51.966;8.230;2023-06-22T01:43:53;9.07;;;8.18;;
37609;SDS011;23457;51.966;8.230;2023-06-22T01:46:22;15.55;;;10.63;;
37609;SDS011;23457;51.966;8.230;2023-06-22T01:48:50;13.48;;;9.80;;
37609;SDS011;23457;51.966;8.230;2023-06-22T01:51:17;11.88;;;10.18;;
37609;SDS011;23457;51.966;8.230;2023-06-22T01:53:43;14.73;;;10.10;;
37609;SDS011;23457;51.966;8.230;2023-06-22T01:56:10;11.73;;;9.13;;
37609;SDS011;23457;51.966;8.230;2023-06-22T01:58:40;12.55;;;10.13;;
37609;SDS011;23457;51.966;8.230;2023-06-22T02:01:35;15.02;;;10.00;;
37609;SDS011;23457;51.966;8.230;2023-06-22T02:04:27;10.90;;;9.77;;
37609;SDS011;23457;51.966;8.230;2023-06-22T02:07:00;10.15;;;9.05;;
37609;SDS011;23457;51.966;8.230;2023-06-22T02:09:30;12.23;;;10.52;;
37609;SDS011;23457;51.966;8.230;2023-06-22T02:11:59;12.65;;;10.82;;
37609;SDS011;23457;51.966;8.230;2023-06-22T02:14:28;11.90;;;10.70;;
37609;SDS011;23457;51.966;8.230;2023-06-22T02:16:55;12.98;;;10.27;;
37609;SDS011;23457;51.966;8.230;2023-06-22T02:19:26;11.00;;;9.85;;
37609;SDS011;23457;51.966;8.230;2023-06-22T02:21:53;12.32;;;9.95;;
37609;SDS011;23457;51.966;8.230;2023-06-22T02:24:20;15.13;;;9.52;;
37609;SDS011;23457;51.966;8.230;2023-06-22T02:26:49;14.82;;;10.80;;
37609;SDS011;23457;51.966;8.230;2023-06-22T02:29:16;11.82;;;10.63;;
37609;SDS011;23457;51.966;8.230;2023-06-22T02:31:44;12.30;;;10.10;;
37609;SDS011;23457;51.966;8.230;2023-06-22T02:34:11;12.25;;;10.98;;
37609;SDS011;23457;51.966;8.230;2023-06-22T02:36:47;11.40;;;8.68;;
37609;SDS011;23457;51.966;8.230;2023-06-22T02:39:19;11.15;;;9.98;;
37609;SDS011;23457;51.966;8.230;2023-06-22T02:41:46;13.47;;;10.63;;
37609;SDS011;23457;51.966;8.230;2023-06-22T02:44:14;15.40;;;11.80;;
37609;SDS011;23457;51.966;8.230;2023-06-22T02:46:41;14.13;;;11.43;;
37609;SDS011;23457;51.966;8.230;2023-06-22T02:49:09;17.25;;;12.52;;
37609;SDS011;23457;51.966;8.230;2023-06-22T02:51:38;13.13;;;11.40;;
37609;SDS011;23457;51.966;8.230;2023-06-22T02:54:07;13.80;;;11.77;;
37609;SDS011;23457;51.966;8.230;2023-06-22T02:56:34;17.80;;;11.75;;
37609;SDS011;23457;51.966;8.230;2023-06-22T02:59:03;13.10;;;11.73;;
37609;SDS011;23457;51.966;8.230;2023-06-22T03:01:35;13.77;;;11.38;;
37609;SDS011;23457;51.966;8.230;2023-06-22T03:04:15;16.40;;;11.68;;
37609;SDS011;23457;51.966;8.230;2023-06-22T03:06:42;13.63;;;11.27;;
37609;SDS011;23457;51.966;8.230;2023-06-22T03:09:09;14.15;;;12.60;;
37609;SDS011;23457;51.966;8.230;2023-06-22T03:11:36;15.75;;;12.40;;
37609;SDS011;23457;51.966;8.230;2023-06-22T03:14:03;14.50;;;11.70;;
37609;SDS011;23457;51.966;8.230;2023-06-22T03:16:29;15.43;;;12.35;;
37609;SDS011;23457;51.966;8.230;2023-06-22T03:18:57;17.58;;;12.68;;
37609;SDS011;23457;51.966;8.230;2023-06-22T03:21:25;15.68;;;13.10;;
37609;SDS011;23457;51.966;8.230;2023-06-22T03:23:54;16.95;;;12.75;;
37609;SDS011;23457;51.966;8.230;2023-06-22T03:26:21;15.40;;;12.70;;
37609;SDS011;23457;51.966;8.230;2023-06-22T03:28:47;15.55;;;12.25;;
37609;SDS011;23457;51.966;8.230;2023-06-22T03:31:15;15.65;;;13.73;;
37609;SDS011;23457;51.966;8.230;2023-06-22T03:33:41;18.30;;;13.65;;
37609;SDS011;23457;51.966;8.230;2023-06-22T03:36:08;14.85;;;12.65;;
37609;SDS011;23457;51.966;8.230;2023-06-22T03:38:35;19.40;;;15.02;;
37609;SDS011;23457;51.966;8.230;2023-06-22T03:41:01;19.90;;;14.40;;
37609;SDS011;23457;51.966;8.230;2023-06-22T03:43:29;17.67;;;14.32;;
37609;SDS011;23457;51.966;8.230;2023-06-22T03:45:56;18.63;;;13.98;;
37609;SDS011;23457;51.966;8.230;2023-06-22T03:48:23;19.42;;;13.65;;
37609;SDS011;23457;51.966;8.230;2023-06-22T03:50:49;16.15;;;14.45;;
37609;SDS011;23457;51.966;8.230;2023-06-22T03:53:16;18.77;;;14.00;;
37609;SDS011;23457;51.966;8.230;2023-06-22T03:55:49;16.15;;;14.07;;
37609;SDS011;23457;51.966;8.230;2023-06-22T03:58:17;16.45;;;13.00;;
37609;SDS011;23457;51.966;8.230;2023-06-22T04:00:47;17.30;;;14.40;;
37609;SDS011;23457;51.966;8.230;2023-06-22T04:03:15;20.33;;;13.25;;
37609;SDS011;23457;51.966;8.230;2023-06-22T04:05:42;15.48;;;13.52;;
37609;SDS011;23457;51.966;8.230;2023-06-22T04:08:09;18.48;;;15.02;;
37609;SDS011;23457;51.966;8.230;2023-06-22T04:10:35;19.10;;;13.20;;
37609;SDS011;23457;51.966;8.230;2023-06-22T04:13:02;19.23;;;15.30;;
37609;SDS011;23457;51.966;8.230;2023-06-22T04:15:29;18.17;;;14.15;;
37609;SDS011;23457;51.966;8.230;2023-06-22T04:17:56;20.33;;;14.48;;
37609;SDS011;23457;51.966;8.230;2023-06-22T04:20:23;19.25;;;13.95;;
37609;SDS011;23457;51.966;8.230;2023-06-22T04:22:55;19.92;;;14.98;;
37609;SDS011;23457;51.966;8.230;2023-06-22T04:25:22;19.27;;;14.48;;
37609;SDS011;23457;51.966;8.230;2023-06-22T04:27:49;17.45;;;14.68;;
37609;SDS011;23457;51.966;8.230;2023-06-22T04:30:17;18.02;;;15.10;;
37609;SDS011;23457;51.966;8.230;2023-06-22T04:32:44;18.13;;;15.32;;
37609;SDS011;23457;51.966;8.230;2023-06-22T04:35:12;22.70;;;15.30;;
37609;SDS011;23457;51.966;8.230;2023-06-22T04:37:39;19.77;;;16.20;;
37609;SDS011;23457;51.966;8.230;2023-06-22T04:40:06;18.55;;;14.90;;
37609;SDS011;23457;51.966;8.230;2023-06-22T04:42:34;19.60;;;15.63;;
37609;SDS011;23457;51.966;8.230;2023-06-22T04:45:02;17.67;;;14.95;;
37609;SDS011;23457;51.966;8.230;2023-06-22T04:47:29;20.58;;;15.13;;
37609;SDS011;23457;51.966;8.230;2023-06-22T04:49:56;19.83;;;15.20;;
37609;SDS011;23457;51.966;8.230;2023-06-22T04:52:22;19.88;;;14.02;;
37609;SDS011;23457;51.966;8.230;2023-06-22T04:54:51;15.65;;;13.70;;
37609;SDS011;23457;51.966;8.230;2023-06-22T04:57:22;17.52;;;14.65;;
37609;SDS011;23457;51.966;8.230;2023-06-22T04:59:59;16.90;;;14.70;;
37609;SDS011;23457;51.966;8.230;2023-06-22T05:02:38;19.10;;;14.93;;
37609;SDS011;23457;51.966;8.230;2023-06-22T05:05:05;15.73;;;14.02;;
37609;SDS011;23457;51.966;8.230;2023-06-22T05:07:34;18.65;;;14.75;;
37609;SDS011;23457;51.966;8.230;2023-06-22T05:10:01;17.73;;;14.50;;
37609;SDS011;23457;51.966;8.230;2023-06-22T05:12:29;19.65;;;15.38;;
37609;SDS011;23457;51.966;8.230;2023-06-22T05:14:56;18.10;;;14.95;;
37609;SDS011;23457;51.966;8.230;2023-06-22T05:17:23;20.85;;;14.95;;
37609;SDS011;23457;51.966;8.230;2023-06-22T05:19:50;18.27;;;14.80;;
37609;SDS011;23457;51.966;8.230;2023-06-22T05:22:17;15.93;;;14.23;;
37609;SDS011;23457;51.966;8.230;2023-06-22T05:24:44;18.83;;;14.82;;
37609;SDS011;23457;51.966;8.230;2023-06-22T05:27:12;19.88;;;15.85;;
37609;SDS011;23457;51.966;8.230;2023-06-22T05:29:39;16.48;;;14.77;;
37609;SDS011;23457;51.966;8.230;2023-06-22T05:32:06;17.30;;;15.13;;
37609;SDS011;23457;51.966;8.230;2023-06-22T05:34:33;20.70;;;15.07;;
37609;SDS011;23457;51.966;8.230;2023-06-22T05:37:00;18.40;;;15.38;;
37609;SDS011;23457;51.966;8.230;2023-06-22T05:39:26;19.17;;;15.52;;
37609;SDS011;23457;51.966;8.230;2023-06-22T05:41:53;17.60;;;15.80;;
37609;SDS011;23457;51.966;8.230;2023-06-22T05:44:20;18.20;;;15.40;;
37609;SDS011;23457;51.966;8.230;2023-06-22T05:46:46;19.10;;;15.52;;
37609;SDS011;23457;51.966;8.230;2023-06-22T05:49:14;22.40;;;14.80;;
37609;SDS011;23457;51.966;8.230;2023-06-22T05:51:42;22.52;;;15.77;;
37609;SDS011;23457;51.966;8.230;2023-06-22T05:54:09;19.17;;;15.75;;
37609;SDS011;23457;51.966;8.230;2023-06-22T05:56:36;19.10;;;15.73;;
37609;SDS011;23457;51.966;8.230;2023-06-22T05:59:03;17.73;;;15.38;;
37609;SDS011;23457;51.966;8.230;2023-06-22T06:01:30;17.52;;;14.85;;
37609;SDS011;23457;51.966;8.230;2023-06-22T06:04:02;16.45;;;13.63;;
37609;SDS011;23457;51.966;8.230;2023-06-22T06:06:30;17.77;;;14.07;;
37609;SDS011;23457;51.966;8.230;2023-06-22T06:08:57;16.20;;;13.80;;
37609;SDS011;23457;51.966;8.230;2023-06-22T06:11:25;16.73;;;13.90;;
37609;SDS011;23457;51.966;8.230;2023-06-22T06:13:52;16.60;;;14.35;;
37609;SDS011;23457;51.966;8.230;2023-06-22T06:16:18;16.15;;;13.95;;
37609;SDS011;23457;51.966;8.230;2023-06-22T06:18:45;17.55;;;13.90;;
37609;SDS011;23457;51.966;8.230;2023-06-22T06:21:12;15.10;;;13.32;;
37609;SDS011;23457;51.966;8.230;2023-06-22T06:23:38;15.40;;;13.52;;
37609;SDS011;23457;51.966;8.230;2023-06-22T06:26:05;14.88;;;13.23;;
37609;SDS011;23457;51.966;8.230;2023-06-22T06:28:33;16.40;;;12.32;;
37609;SDS011;23457;51.966;8.230;2023-06-22T06:31:01;17.70;;;13.82;;
37609;SDS011;23457;51.966;8.230;2023-06-22T06:33:27;15.68;;;13.23;;
37609;SDS011;23457;51.966;8.230;2023-06-22T06:35:54;17.15;;;13.95;;
37609;SDS011;23457;51.966;8.230;2023-06-22T06:38:22;15.35;;;13.73;;
37609;SDS011;23457;51.966;8.230;2023-06-22T06:40:48;17.50;;;14.13;;
37609;SDS011;23457;51.966;8.230;2023-06-22T06:43:15;19.65;;;13.85;;
37609;SDS011;23457;51.966;8.230;2023-06-22T06:45:42;15.98;;;14.20;;
37609;SDS011;23457;51.966;8.230;2023-06-22T06:48:08;14.05;;;12.50;;
37609;SDS011;23457;51.966;8.230;2023-06-22T06:50:35;15.35;;;12.95;;
37609;SDS011;23457;51.966;8.230;2023-06-22T06:53:02;16.10;;;12.60;;
37609;SDS011;23457;51.966;8.230;2023-06-22T06:55:29;13.73;;;12.27;;
37609;SDS011;23457;51.966;8.230;2023-06-22T06:57:59;13.35;;;11.23;;
37609;SDS011;23457;51.966;8.230;2023-06-22T07:00:26;14.18;;;12.13;;
37609;SDS011;23457;51.966;8.230;2023-06-22T07:02:53;14.40;;;11.88;;
37609;SDS011;23457;51.966;8.230;2023-06-22T07:05:20;16.50;;;13.18;;
37609;SDS011;23457;51.966;8.230;2023-06-22T07:07:47;15.55;;;13.80;;
37609;SDS011;23457;51.966;8.230;2023-06-22T07:10:13;17.27;;;13.43;;
37609;SDS011;23457;51.966;8.230;2023-06-22T07:12:41;15.60;;;12.93;;
37609;SDS011;23457;51.966;8.230;2023-06-22T07:15:08;14.23;;;12.75;;
37609;SDS011;23457;51.966;8.230;2023-06-22T07:17:36;16.75;;;13.32;;
37609;SDS011;23457;51.966;8.230;2023-06-22T07:20:03;13.98;;;11.90;;
37609;SDS011;23457;51.966;8.230;2023-06-22T07:22:40;17.20;;;12.93;;
37609;SDS011;23457;51.966;8.230;2023-06-22T07:25:09;16.17;;;12.32;;
37609;SDS011;23457;51.966;8.230;2023-06-22T07:27:44;13.60;;;12.20;;
37609;SDS011;23457;51.966;8.230;2023-06-22T07:30:12;15.80;;;12.50;;
37609;SDS011;23457;51.966;8.230;2023-06-22T07:32:40;15.85;;;12.18;;
37609;SDS011;23457;51.966;8.230;2023-06-22T07:35:07;13.70;;;12.25;;
37609;SDS011;23457;51.966;8.230;2023-06-22T07:37:34;16.15;;;13.98;;
37609;SDS011;23457;51.966;8.230;2023-06-22T07:40:01;17.00;;;13.93;;
37609;SDS011;23457;51.966;8.230;2023-06-22T07:42:32;15.35;;;13.43;;
37609;SDS011;23457;51.966;8.230;2023-06-22T07:45:02;18.13;;;14.15;;
37609;SDS011;23457;51.966;8.230;2023-06-22T07:47:30;15.77;;;12.95;;
37609;SDS011;23457;51.966;8.230;2023-06-22T07:49:58;20.40;;;15.10;;
37609;SDS011;23457;51.966;8.230;2023-06-22T07:52:27;19.75;;;15.00;;
37609;SDS011;23457;51.966;8.230;2023-06-22T07:54:55;18.27;;;14.55;;
37609;SDS011;23457;51.966;8.230;2023-06-22T07:57:21;14.88;;;12.95;;
37609;SDS011;23457;51.966;8.230;2023-06-22T07:59:48;18.92;;;14.30;;
37609;SDS011;23457;51.966;8.230;2023-06-22T08:02:14;20.17;;;14.85;;
37609;SDS011;23457;51.966;8.230;2023-06-22T08:04:41;19.45;;;14.38;;
37609;SDS011;23457;51.966;8.230;2023-06-22T08:07:08;18.83;;;14.95;;
37609;SDS011;23457;51.966;8.230;2023-06-22T08:09:35;17.92;;;14.73;;
37609;SDS011;23457;51.966;8.230;2023-06-22T08:12:03;17.50;;;13.93;;
37609;SDS011;23457;51.966;8.230;2023-06-22T08:14:30;17.85;;;14.52;;
37609;SDS011;23457;51.966;8.230;2023-06-22T08:16:56;17.95;;;15.20;;
37609;SDS011;23457;51.966;8.230;2023-06-22T08:19:24;19.27;;;14.77;;
37609;SDS011;23457;51.966;8.230;2023-06-22T08:21:51;16.23;;;13.73;;
37609;SDS011;23457;51.966;8.230;2023-06-22T08:24:17;16.67;;;14.07;;
37609;SDS011;23457;51.966;8.230;2023-06-22T08:26:44;16.67;;;14.65;;
37609;SDS011;23457;51.966;8.230;2023-06-22T08:29:12;14.27;;;12.98;;
37609;SDS011;23457;51.966;8.230;2023-06-22T08:31:38;16.50;;;14.60;;
37609;SDS011;23457;51.966;8.230;2023-06-22T08:34:05;15.63;;;13.30;;
37609;SDS011;23457;51.966;8.230;2023-06-22T08:36:32;16.45;;;13.93;;
37609;SDS011;23457;51.966;8.230;2023-06-22T08:39:04;14.73;;;12.70;;
37609;SDS011;23457;51.966;8.230;2023-06-22T08:41:30;15.05;;;12.15;;
37609;SDS011;23457;51.966;8.230;2023-06-22T08:43:57;15.30;;;12.07;;
37609;SDS011;23457;51.966;8.230;2023-06-22T08:46:23;17.25;;;11.77;;
37609;SDS011;23457;51.966;8.230;2023-06-22T08:48:56;12.00;;;10.73;;
37609;SDS011;23457;51.966;8.230;2023-06-22T08:51:24;12.32;;;11.00;;
37609;SDS011;23457;51.966;8.230;2023-06-22T08:53:50;12.30;;;10.75;;
37609;SDS011;23457;51.966;8.230;2023-06-22T08:56:17;12.48;;;11.18;;
37609;SDS011;23457;51.966;8.230;2023-06-22T08:58:45;10.07;;;8.95;;
37609;SDS011;23457;51.966;8.230;2023-06-22T09:01:11;12.38;;;9.65;;
37609;SDS011;23457;51.966;8.230;2023-06-22T09:03:38;14.02;;;11.85;;
37609;SDS011;23457;51.966;8.230;2023-06-22T09:06:05;14.43;;;12.90;;
37609;SDS011;23457;51.966;8.230;2023-06-22T09:08:32;13.65;;;11.80;;
37609;SDS011;23457;51.966;8.230;2023-06-22T09:10:58;14.18;;;10.80;;
37609;SDS011;23457;51.966;8.230;2023-06-22T09:13:25;9.65;;;7.95;;
37609;SDS011;23457;51.966;8.230;2023-06-22T09:15:52;8.57;;;7.68;;
37609;SDS011;23457;51.966;8.230;2023-06-22T09:18:19;8.43;;;7.63;;
37609;SDS011;23457;51.966;8.230;2023-06-22T09:20:46;9.05;;;7.57;;
37609;SDS011;23457;51.966;8.230;2023-06-22T09:23:13;8.75;;;7.85;;
37609;SDS011;23457;51.966;8.230;2023-06-22T09:25:41;9.50;;;8.55;;
37609;SDS011;23457;51.966;8.230;2023-06-22T09:28:08;8.68;;;7.47;;
37609;SDS011;23457;51.966;8.230;2023-06-22T09:30:34;12.15;;;8.43;;
37609;SDS011;23457;51.966;8.230;2023-06-22T09:33:01;8.25;;;7.28;;
37609;SDS011;23457;51.966;8.230;2023-06-22T09:35:28;11.85;;;7.38;;
37609;SDS011;23457;51.966;8.230;2023-06-22T09:37:55;8.63;;;7.65;;
37609;SDS011;23457;51.966;8.230;2023-06-22T09:40:22;8.35;;;7.53;;
37609;SDS011;23457;51.966;8.230;2023-06-22T09:42:48;10.00;;;9.00;;
37609;SDS011;23457;51.966;8.230;2023-06-22T09:45:18;9.10;;;7.97;;
37609;SDS011;23457;51.966;8.230;2023-06-22T09:47:44;9.27;;;8.27;;
37609;SDS011;23457;51.966;8.230;2023-06-22T09:50:11;8.45;;;7.65;;
37609;SDS011;23457;51.966;8.230;2023-06-22T09:52:38;8.40;;;7.43;;
37609;SDS011;23457;51.966;8.230;2023-06-22T09:55:07;9.20;;;8.30;;
37609;SDS011;23457;51.966;8.230;2023-06-22T09:57:34;10.90;;;8.80;;
37609;SDS011;23457;51.966;8.230;2023-06-22T10:00:01;9.27;;;8.20;;
37609;SDS011;23457;51.966;8.230;2023-06-22T10:02:31;10.23;;;8.45;;
37609;SDS011;23457;51.966;8.230;2023-06-22T10:04:58;11.80;;;9.57;;
37609;SDS011;23457;51.966;8.230;2023-06-22T10:07:25;10.25;;;9.23;;
37609;SDS011;23457;51.966;8.230;2023-06-22T10:09:52;11.98;;;10.50;;
37609;SDS011;23457;51.966;8.230;2023-06-22T10:12:19;9.82;;;8.75;;
37609;SDS011;23457;51.966;8.230;2023-06-22T10:14:45;11.60;;;9.25;;
37609;SDS011;23457;51.966;8.230;2023-06-22T10:17:12;10.68;;;8.93;;
37609;SDS011;23457;51.966;8.230;2023-06-22T10:19:39;14.30;;;10.60;;
37609;SDS011;23457;51.966;8.230;2023-06-22T10:22:07;12.00;;;10.77;;
37609;SDS011;23457;51.966;8.230;2023-06-22T10:24:34;11.15;;;9.95;;
37609;SDS011;23457;51.966;8.230;2023-06-22T10:27:01;15.18;;;10.32;;
37609;SDS011;23457;51.966;8.230;2023-06-22T10:29:28;12.57;;;10.73;;
37609;SDS011;23457;51.966;8.230;2023-06-22T10:31:54;11.30;;;9.70;;
37609;SDS011;23457;51.966;8.230;2023-06-22T10:34:21;12.52;;;10.52;;
37609;SDS011;23457;51.966;8.230;2023-06-22T10:36:47;10.93;;;9.50;;
37609;SDS011;23457;51.966;8.230;2023-06-22T10:39:15;11.35;;;9.00;;
37609;SDS011;23457;51.966;8.230;2023-06-22T10:41:42;9.63;;;8.48;;
37609;SDS011;23457;51.966;8.230;2023-06-22T10:44:08;9.75;;;8.30;;
37609;SDS011;23457;51.966;8.230;2023-06-22T10:46:35;10.40;;;8.70;;
37609;SDS011;23457;51.966;8.230;2023-06-22T10:49:02;9.63;;;7.60;;
37609;SDS011;23457;51.966;8.230;2023-06-22T10:51:28;10.05;;;8.00;;
37609;SDS011;23457;51.966;8.230;2023-06-22T10:53:55;9.85;;;7.90;;
37609;SDS011;23457;51.966;8.230;2023-06-22T10:56:22;8.23;;;7.35;;
37609;SDS011;23457;51.966;8.230;2023-06-22T10:58:49;9.18;;;8.00;;
37609;SDS011;23457;51.966;8.230;2023-06-22T11:01:16;7.63;;;6.82;;
37609;SDS011;23457;51.966;8.230;2023-06-22T11:04:00;8.95;;;7.35;;
37609;SDS011;23457;51.966;8.230;2023-06-22T11:06:28;8.05;;;7.20;;
37609;SDS011;23457;51.966;8.230;2023-06-22T11:08:54;12.00;;;7.18;;
37609;SDS011;23457;51.966;8.230;2023-06-22T11:11:32;8.23;;;7.28;;
37609;SDS011;23457;51.966;8.230;2023-06-22T11:13:59;8.77;;;7.55;;
37609;SDS011;23457;51.966;8.230;2023-06-22T11:16:25;8.68;;;7.22;;
37609;SDS011;23457;51.966;8.230;2023-06-22T11:18:52;7.95;;;7.15;;
37609;SDS011;23457;51.966;8.230;2023-06-22T11:21:19;9.93;;;7.18;;
37609;SDS011;23457;51.966;8.230;2023-06-22T11:23:46;7.47;;;6.78;;
37609;SDS011;23457;51.966;8.230;2023-06-22T11:26:12;8.40;;;6.97;;
37609;SDS011;23457;51.966;8.230;2023-06-22T11:28:43;9.30;;;7.47;;
37609;SDS011;23457;51.966;8.230;2023-06-22T11:31:09;8.45;;;7.63;;
37609;SDS011;23457;51.966;8.230;2023-06-22T11:33:52;7.93;;;7.15;;
37609;SDS011;23457;51.966;8.230;2023-06-22T11:36:18;7.45;;;6.68;;
37609;SDS011;23457;51.966;8.230;2023-06-22T11:38:46;8.15;;;7.45;;
37609;SDS011;23457;51.966;8.230;2023-06-22T11:41:12;9.40;;;7.32;;
37609;SDS011;23457;51.966;8.230;2023-06-22T11:43:39;9.60;;;7.55;;
37609;SDS011;23457;51.966;8.230;2023-06-22T11:46:06;8.75;;;7.95;;
37609;SDS011;23457;51.966;8.230;2023-06-22T11:48:33;10.30;;;7.60;;
37609;SDS011;23457;51.966;8.230;2023-06-22T11:50:59;9.32;;;8.43;;
37609;SDS011;23457;51.966;8.230;2023-06-22T11:53:26;9.02;;;8.13;;
37609;SDS011;23457;51.966;8.230;2023-06-22T11:55:53;13.38;;;9.45;;
37609;SDS011;23457;51.966;8.230;2023-06-22T11:58:22;10.65;;;9.00;;
37609;SDS011;23457;51.966;8.230;2023-06-22T12:00:49;9.50;;;8.48;;
37609;SDS011;23457;51.966;8.230;2023-06-22T12:05:45;10.80;;;8.90;;
37609;SDS011;23457;51.966;8.230;2023-06-22T12:08:11;10.35;;;8.73;;
37609;SDS011;23457;51.966;8.230;2023-06-22T12:10:39;11.32;;;9.48;;
37609;SDS011;23457;51.966;8.230;2023-06-22T12:13:06;10.15;;;9.02;;
37609;SDS011;23457;51.966;8.230;2023-06-22T12:15:33;11.05;;;8.55;;
37609;SDS011;23457;51.966;8.230;2023-06-22T12:18:00;10.45;;;9.40;;
37609;SDS011;23457;51.966;8.230;2023-06-22T12:20:28;10.30;;;8.95;;
37609;SDS011;23457;51.966;8.230;2023-06-22T12:22:55;10.20;;;9.25;;
37609;SDS011;23457;51.966;8.230;2023-06-22T12:25:24;9.85;;;8.95;;
37609;SDS011;23457;51.966;8.230;2023-06-22T12:27:54;19.15;;;11.15;;
37609;SDS011;23457;51.966;8.230;2023-06-22T12:30:36;14.13;;;11.65;;
37609;SDS011;23457;51.966;8.230;2023-06-22T12:33:03;14.98;;;12.48;;
37609;SDS011;23457;51.966;8.230;2023-06-22T12:35:31;15.73;;;13.25;;
37609;SDS011;23457;51.966;8.230;2023-06-22T12:37:58;14.90;;;13.02;;
37609;SDS011;23457;51.966;8.230;2023-06-22T12:40:24;19.92;;;15.30;;
37609;SDS011;23457;51.966;8.230;2023-06-22T12:42:51;15.98;;;14.38;;
37609;SDS011;23457;51.966;8.230;2023-06-22T12:45:18;17.33;;;15.63;;
37609;SDS011;23457;51.966;8.230;2023-06-22T12:47:46;17.73;;;15.88;;
37609;SDS011;23457;51.966;8.230;2023-06-22T12:50:12;21.27;;;16.27;;
37609;SDS011;23457;51.966;8.230;2023-06-22T12:52:39;18.90;;;16.88;;
37609;SDS011;23457;51.966;8.230;2023-06-22T12:55:07;20.75;;;18.52;;
37609;SDS011;23457;51.966;8.230;2023-06-22T12:57:34;25.75;;;18.85;;
37609;SDS011;23457;51.966;8.230;2023-06-22T13:00:01;23.65;;;20.10;;
37609;SDS011;23457;51.966;8.230;2023-06-22T13:02:28;23.17;;;20.67;;
37609;SDS011;23457;51.966;8.230;2023-06-22T13:04:55;23.85;;;20.60;;
37609;SDS011;23457;51.966;8.230;2023-06-22T13:07:21;24.98;;;20.92;;
37609;SDS011;23457;51.966;8.230;2023-06-22T13:09:50;24.33;;;20.10;;
37609;SDS011;23457;51.966;8.230;2023-06-22T13:12:19;25.35;;;20.60;;
37609;SDS011;23457;51.966;8.230;2023-06-22T13:14:46;26.90;;;21.57;;
37609;SDS011;23457;51.966;8.230;2023-06-22T13:17:13;28.77;;;23.70;;
37609;SDS011;23457;51.966;8.230;2023-06-22T13:19:40;28.20;;;24.17;;
37609;SDS011;23457;51.966;8.230;2023-06-22T13:22:25;30.55;;;23.63;;
37609;SDS011;23457;51.966;8.230;2023-06-22T13:24:55;33.63;;;24.95;;
37609;SDS011;23457;51.966;8.230;2023-06-22T13:27:22;29.35;;;26.25;;
37609;SDS011;23457;51.966;8.230;2023-06-22T13:29:49;29.05;;;25.80;;
37609;SDS011;23457;51.966;8.230;2023-06-22T13:32:16;33.10;;;27.27;;
37609;SDS011;23457;51.966;8.230;2023-06-22T13:34:43;32.03;;;26.25;;
37609;SDS011;23457;51.966;8.230;2023-06-22T13:37:10;33.60;;;28.85;;
37609;SDS011;23457;51.966;8.230;2023-06-22T13:39:36;36.60;;;28.67;;
37609;SDS011;23457;51.966;8.230;2023-06-22T13:42:03;33.83;;;29.30;;
37609;SDS011;23457;51.966;8.230;2023-06-22T13:44:30;34.13;;;29.38;;
37609;SDS011;23457;51.966;8.230;2023-06-22T13:46:57;33.10;;;29.52;;
37609;SDS011;23457;51.966;8.230;2023-06-22T13:49:24;36.00;;;28.48;;
37609;SDS011;23457;51.966;8.230;2023-06-22T13:51:51;32.78;;;29.02;;
37609;SDS011;23457;51.966;8.230;2023-06-22T13:54:17;36.85;;;31.27;;
37609;SDS011;23457;51.966;8.230;2023-06-22T13:56:55;36.22;;;30.70;;
37609;SDS011;23457;51.966;8.230;2023-06-22T13:59:22;40.30;;;32.20;;
37609;SDS011;23457;51.966;8.230;2023-06-22T14:01:49;40.65;;;30.27;;
37609;SDS011;23457;51.966;8.230;2023-06-22T14:04:15;35.90;;;30.13;;
37609;SDS011;23457;51.966;8.230;2023-06-22T14:06:42;35.72;;;28.63;;
37609;SDS011;23457;51.966;8.230;2023-06-22T14:09:09;33.13;;;27.90;;
37609;SDS011;23457;51.966;8.230;2023-06-22T14:11:35;37.75;;;30.00;;
37609;SDS011;23457;51.966;8.230;2023-06-22T14:14:02;35.22;;;28.83;;
37609;SDS011;23457;51.966;8.230;2023-06-22T14:16:29;32.67;;;28.00;;
37609;SDS011;23457;51.966;8.230;2023-06-22T14:18:56;32.50;;;27.80;;
37609;SDS011;23457;51.966;8.230;2023-06-22T14:21:23;31.55;;;28.13;;
37609;SDS011;23457;51.966;8.230;2023-06-22T14:23:51;29.55;;;25.42;;
37609;SDS011;23457;51.966;8.230;2023-06-22T14:26:18;30.55;;;26.27;;
37609;SDS011;23457;51.966;8.230;2023-06-22T14:28:45;28.38;;;24.40;;
37609;SDS011;23457;51.966;8.230;2023-06-22T14:33:48;36.22;;;25.52;;
37609;SDS011;23457;51.966;8.230;2023-06-22T14:36:15;34.05;;;25.45;;
37609;SDS011;23457;51.966;8.230;2023-06-22T14:38:44;31.58;;;25.30;;
37609;SDS011;23457;51.966;8.230;2023-06-22T14:41:13;26.90;;;23.90;;
37609;SDS011;23457;51.966;8.230;2023-06-22T14:46:17;24.67;;;22.08;;
37609;SDS011;23457;51.966;8.230;2023-06-22T14:48:45;23.05;;;20.65;;
37609;SDS011;23457;51.966;8.230;2023-06-22T14:51:12;22.40;;;19.98;;